createdAt,value
2023-04-12T00:01:59.865Z,11.20
2023-04-12T00:04:28.925Z,11.10
2023-04-12T00:06:56.306Z,11.10
2023-04-12T00:09:23.351Z,11.10
2023-04-12T00:11:50.187Z,11.00
2023-04-12T00:14:16.986Z,11.00
2023-04-12T00:16:43.712Z,11.00
2023-04-12T00:19:10.553Z,11.00
2023-04-12T00:21:37.396Z,11.00
2023-04-12T00:24:04.539Z,11.00
2023-04-12T00:26:31.420Z,11.00
2023-04-12T00:28:58.260Z,10.90
2023-04-12T00:31:25.774Z,10.90
2023-04-12T00:33:52.702Z,10.90
2023-04-12T00:36:19.772Z,10.80
2023-04-12T00:38:46.735Z,10.80
2023-04-12T00:41:14.830Z,10.80
2023-04-12T00:43:42.285Z,10.70
2023-04-12T00:46:09.553Z,10.70
2023-04-12T00:48:37.856Z,10.60
2023-04-12T00:51:07.320Z,10.50
2023-04-12T00:53:34.435Z,10.40
2023-04-12T00:56:01.803Z,10.40
2023-04-12T00:58:28.766Z,10.40
2023-04-12T01:00:57.312Z,10.30
2023-04-12T01:03:27.563Z,10.30
2023-04-12T01:06:33.970Z,10.30
2023-04-12T01:09:30.344Z,10.40
2023-04-12T01:12:04.526Z,10.30
2023-04-12T01:14:41.251Z,10.30
2023-04-12T01:17:14.195Z,10.10
2023-04-12T01:20:17.208Z,10.20
2023-04-12T01:23:12.864Z,10.10
2023-04-12T01:25:48.600Z,10.10
2023-04-12T01:28:21.021Z,10.00
2023-04-12T01:30:50.229Z,9.90
2023-04-12T01:33:19.225Z,9.90
2023-04-12T01:35:46.887Z,9.80
2023-04-12T01:38:14.152Z,9.80
2023-04-12T01:40:42.767Z,9.70
2023-04-12T01:43:10.630Z,9.70
2023-04-12T01:45:37.870Z,9.70
2023-04-12T01:48:07.944Z,9.60
2023-04-12T01:50:49.892Z,9.60
2023-04-12T01:53:35.421Z,9.60
2023-04-12T01:56:07.818Z,9.50
2023-04-12T01:58:36.019Z,9.50
2023-04-12T02:01:04.013Z,9.50
2023-04-12T02:03:31.627Z,9.50
2023-04-12T02:05:59.913Z,9.50
2023-04-12T02:08:27.133Z,9.50
2023-04-12T02:10:54.975Z,9.50
2023-04-12T02:13:21.988Z,9.50
2023-04-12T02:15:49.716Z,9.40
2023-04-12T02:18:17.653Z,9.40
2023-04-12T02:20:44.564Z,9.40
2023-04-12T02:23:11.452Z,9.40
2023-04-12T02:25:39.647Z,9.30
2023-04-12T02:28:06.870Z,9.30
2023-04-12T02:30:33.765Z,9.30
2023-04-12T02:33:00.653Z,9.40
2023-04-12T02:35:27.593Z,9.40
2023-04-12T02:37:54.906Z,9.30
2023-04-12T02:40:21.953Z,9.40
2023-04-12T02:42:48.769Z,9.40
2023-04-12T02:45:15.644Z,9.30
2023-04-12T02:47:42.523Z,9.40
2023-04-12T02:50:09.558Z,9.30
2023-04-12T02:52:36.355Z,9.40
2023-04-12T02:55:03.503Z,9.30
2023-04-12T02:57:30.475Z,9.20
2023-04-12T02:59:57.246Z,9.20
2023-04-12T03:02:24.291Z,9.10
2023-04-12T03:04:51.254Z,9.10
2023-04-12T03:07:19.610Z,9.20
2023-04-12T03:09:47.790Z,9.00
2023-04-12T03:12:16.010Z,9.20
2023-04-12T03:14:43.211Z,9.10
2023-04-12T03:17:10.891Z,9.10
2023-04-12T03:19:37.761Z,9.10
2023-04-12T03:22:06.156Z,9.20
2023-04-12T03:24:37.214Z,9.10
2023-04-12T03:27:05.501Z,9.10
2023-04-12T03:29:32.691Z,9.10
2023-04-12T03:31:59.696Z,9.10
2023-04-12T03:34:32.226Z,9.10
2023-04-12T03:37:01.114Z,9.00
2023-04-12T03:39:28.651Z,9.00
2023-04-12T03:41:55.594Z,8.90
2023-04-12T03:44:22.611Z,8.80
2023-04-12T03:46:49.542Z,8.80
2023-04-12T03:49:16.730Z,8.90
2023-04-12T03:51:43.904Z,8.90
2023-04-12T03:54:13.085Z,8.90
2023-04-12T03:56:40.063Z,8.90
2023-04-12T03:59:10.427Z,9.00
2023-04-12T04:01:38.860Z,8.80
2023-04-12T04:04:06.623Z,8.80
2023-04-12T04:06:34.305Z,8.90
2023-04-12T04:09:01.422Z,8.80
2023-04-12T04:11:28.333Z,8.80
2023-04-12T04:13:55.772Z,8.80
2023-04-12T04:16:23.129Z,8.80
2023-04-12T04:18:49.952Z,8.80
2023-04-12T04:21:16.730Z,8.80
2023-04-12T04:23:48.074Z,8.80
2023-04-12T04:26:16.997Z,8.80
2023-04-12T04:28:47.273Z,8.80
2023-04-12T04:31:17.356Z,8.80
2023-04-12T04:33:44.865Z,8.80
2023-04-12T04:36:12.800Z,8.80
2023-04-12T04:38:40.408Z,8.90
2023-04-12T04:41:09.202Z,8.90
2023-04-12T04:43:40.021Z,9.00
2023-04-12T04:46:07.083Z,8.90
2023-04-12T04:48:34.067Z,8.80
2023-04-12T04:51:02.106Z,8.90
2023-04-12T04:53:28.924Z,8.90
2023-04-12T04:55:59.613Z,9.00
2023-04-12T04:58:27.226Z,9.00
2023-04-12T05:00:57.550Z,9.00
2023-04-12T05:03:30.233Z,9.00
2023-04-12T05:05:57.713Z,9.00
2023-04-12T05:08:25.143Z,9.00
2023-04-12T05:10:53.437Z,8.90
2023-04-12T05:13:21.140Z,9.00
2023-04-12T05:15:48.372Z,9.00
2023-04-12T05:18:15.969Z,9.10
2023-04-12T05:20:43.165Z,9.10
2023-04-12T05:23:10.016Z,9.10
2023-04-12T05:25:36.819Z,9.00
2023-04-12T05:28:03.766Z,9.10
2023-04-12T05:30:30.744Z,9.00
2023-04-12T05:32:57.584Z,9.10
2023-04-12T05:35:24.520Z,9.20
2023-04-12T05:37:51.292Z,9.10
2023-04-12T05:40:18.126Z,9.20
2023-04-12T05:42:45.039Z,9.20
2023-04-12T05:45:11.934Z,9.20
2023-04-12T05:47:38.723Z,9.20
2023-04-12T05:50:07.078Z,9.20
2023-04-12T05:52:33.938Z,9.30
2023-04-12T05:55:00.866Z,9.20
2023-04-12T05:57:27.668Z,9.30
2023-04-12T05:59:54.922Z,9.40
2023-04-12T06:02:27.094Z,9.40
2023-04-12T06:04:55.565Z,9.40
2023-04-12T06:07:23.074Z,9.30
2023-04-12T06:09:49.971Z,9.40
2023-04-12T06:12:17.122Z,9.40
2023-04-12T06:14:43.989Z,9.50
2023-04-12T06:17:11.432Z,9.50
2023-04-12T06:19:38.292Z,9.30
2023-04-12T06:22:05.130Z,9.30
2023-04-12T06:24:31.920Z,9.30
2023-04-12T06:26:58.730Z,9.20
2023-04-12T06:29:26.120Z,9.20
2023-04-12T06:31:53.153Z,9.20
2023-04-12T06:34:19.976Z,9.20
2023-04-12T06:36:47.861Z,9.20
2023-04-12T06:39:16.368Z,9.20
2023-04-12T06:41:43.924Z,9.20
2023-04-12T06:44:10.875Z,9.20
2023-04-12T06:46:37.861Z,9.10
2023-04-12T06:49:04.824Z,9.00
2023-04-12T06:51:31.627Z,9.10
2023-04-12T06:53:58.494Z,9.10
2023-04-12T06:56:25.409Z,9.10
2023-04-12T06:58:52.165Z,9.10
2023-04-12T07:01:19.265Z,9.00
2023-04-12T07:03:46.272Z,9.00
2023-04-12T07:06:24.364Z,9.00
2023-04-12T07:08:52.722Z,9.00
2023-04-12T07:11:22.541Z,8.80
2023-04-12T07:13:50.749Z,8.90
2023-04-12T07:16:18.467Z,8.90
2023-04-12T07:18:45.522Z,8.90
2023-04-12T07:21:17.527Z,9.00
2023-04-12T07:23:44.857Z,9.00
2023-04-12T07:26:11.672Z,9.00
2023-04-12T07:28:39.176Z,9.10
2023-04-12T07:31:07.403Z,9.10
2023-04-12T07:33:36.098Z,9.00
2023-04-12T07:36:04.086Z,9.00
2023-04-12T07:38:31.205Z,9.10
2023-04-12T07:40:58.162Z,9.10
2023-04-12T07:43:25.293Z,9.10
2023-04-12T07:45:54.253Z,9.10
2023-04-12T07:48:21.144Z,9.20
2023-04-12T07:50:47.960Z,9.20
2023-04-12T07:53:23.245Z,9.30
2023-04-12T07:55:51.262Z,9.20
2023-04-12T07:58:19.149Z,9.20
2023-04-12T08:00:46.797Z,9.30
2023-04-12T08:03:18.178Z,9.20
2023-04-12T08:05:45.695Z,9.20
2023-04-12T08:08:14.497Z,9.10
2023-04-12T08:10:41.397Z,9.10
2023-04-12T08:13:08.823Z,9.10
2023-04-12T08:15:35.822Z,9.10
2023-04-12T08:18:02.899Z,9.10
2023-04-12T08:20:30.502Z,9.20
2023-04-12T08:23:00.696Z,9.20
2023-04-12T08:25:27.741Z,9.30
2023-04-12T08:27:54.567Z,9.30
2023-04-12T08:30:26.696Z,9.30
2023-04-12T08:32:54.107Z,9.40
2023-04-12T08:35:21.571Z,9.50
2023-04-12T08:37:48.523Z,9.40
2023-04-12T08:40:15.765Z,9.30
2023-04-12T08:42:43.157Z,9.30
2023-04-12T08:45:11.916Z,9.40
2023-04-12T08:47:42.674Z,9.30
2023-04-12T08:50:14.039Z,9.50
2023-04-12T08:52:41.872Z,9.50
2023-04-12T08:55:10.124Z,9.50
2023-04-12T08:57:39.680Z,9.60
2023-04-12T09:00:08.251Z,9.60
2023-04-12T09:02:39.084Z,9.60
2023-04-12T09:05:07.232Z,9.60
2023-04-12T09:07:34.834Z,9.60
2023-04-12T09:10:02.070Z,9.60
2023-04-12T09:12:29.066Z,9.70
2023-04-12T09:15:08.647Z,9.70
2023-04-12T09:17:39.243Z,9.60
2023-04-12T09:20:18.151Z,9.60
2023-04-12T09:22:46.856Z,9.60
2023-04-12T09:25:15.071Z,9.60
2023-04-12T09:27:52.459Z,9.60
2023-04-12T09:30:20.810Z,9.60
2023-04-12T09:32:51.238Z,9.70
2023-04-12T09:35:18.745Z,9.80
2023-04-12T09:37:45.806Z,9.80
2023-04-12T09:40:12.865Z,9.80
2023-04-12T09:42:53.972Z,9.80
2023-04-12T09:45:26.029Z,9.70
2023-04-12T09:47:54.547Z,9.90
2023-04-12T09:50:27.368Z,9.90
2023-04-12T09:52:55.595Z,9.80
2023-04-12T09:55:23.772Z,9.90
2023-04-12T09:57:52.675Z,9.80
2023-04-12T10:00:22.451Z,9.70
2023-04-12T10:02:56.465Z,9.80
2023-04-12T10:05:28.159Z,9.80
2023-04-12T10:07:56.856Z,9.70
2023-04-12T10:10:24.288Z,9.70
2023-04-12T10:12:51.520Z,9.80
2023-04-12T10:15:21.023Z,9.80
2023-04-12T10:17:55.516Z,9.90
2023-04-12T10:20:26.147Z,9.90
2023-04-12T10:22:56.240Z,9.90
2023-04-12T10:25:26.100Z,9.80
2023-04-12T10:27:53.603Z,9.80
2023-04-12T10:30:24.782Z,9.80
2023-04-12T10:33:06.622Z,9.90
2023-04-12T10:35:53.116Z,9.90
2023-04-12T10:38:20.814Z,10.00
2023-04-12T10:41:13.799Z,9.90
2023-04-12T10:44:21.987Z,9.90
2023-04-12T10:46:49.192Z,9.80
2023-04-12T10:49:17.313Z,9.80
2023-04-12T10:52:05.246Z,9.90
2023-04-12T10:54:36.412Z,9.90
2023-04-12T10:57:04.566Z,9.90
2023-04-12T10:59:50.999Z,9.90
2023-04-12T11:02:18.028Z,9.90
2023-04-12T11:05:04.651Z,9.90
2023-04-12T11:07:45.108Z,9.70
2023-04-12T11:10:16.541Z,9.80
2023-04-12T11:12:57.265Z,9.70
2023-04-12T11:15:28.976Z,9.80
2023-04-12T11:17:57.770Z,9.80
2023-04-12T11:20:27.606Z,9.70
2023-04-12T11:22:55.367Z,9.80
2023-04-12T11:25:22.395Z,9.70
2023-04-12T11:27:54.854Z,9.80
2023-04-12T11:30:23.701Z,9.70
2023-04-12T11:32:50.919Z,9.80
2023-04-12T11:35:20.396Z,9.80
2023-04-12T11:37:47.534Z,9.80
2023-04-12T11:40:15.046Z,9.90
2023-04-12T11:42:42.203Z,9.90
2023-04-12T11:45:17.265Z,9.90
2023-04-12T11:47:46.659Z,10.00
2023-04-12T11:50:13.774Z,10.00
2023-04-12T11:52:41.436Z,9.90
2023-04-12T11:55:11.154Z,9.90
2023-04-12T11:57:39.091Z,9.90
2023-04-12T12:00:07.054Z,9.90
2023-04-12T12:02:41.168Z,9.90
2023-04-12T12:05:11.883Z,9.90
2023-04-12T12:07:39.541Z,9.90
2023-04-12T12:10:07.509Z,9.90
2023-04-12T12:12:35.266Z,9.90
2023-04-12T12:15:02.423Z,10.00
2023-04-12T12:17:29.461Z,10.00
2023-04-12T12:20:01.570Z,10.00
2023-04-12T12:22:28.445Z,10.10
2023-04-12T12:24:57.779Z,10.10
2023-04-12T12:27:30.736Z,10.10
2023-04-12T12:30:01.665Z,10.20
2023-04-12T12:32:39.174Z,10.30
2023-04-12T12:35:10.695Z,10.30
2023-04-12T12:37:37.645Z,10.30
2023-04-12T12:40:16.487Z,10.40
2023-04-12T12:42:51.991Z,10.40
2023-04-12T12:45:20.696Z,10.50
2023-04-12T12:47:59.789Z,10.50
2023-04-12T12:50:29.345Z,10.50
2023-04-12T12:52:56.848Z,10.50
2023-04-12T12:55:24.492Z,10.50
2023-04-12T12:58:06.756Z,10.60
2023-04-12T13:00:34.782Z,10.50
2023-04-12T13:03:02.252Z,10.50
2023-04-12T13:05:30.014Z,10.50
2023-04-12T13:07:56.993Z,10.50
2023-04-12T13:10:23.977Z,10.50
2023-04-12T13:12:51.530Z,10.50
2023-04-12T13:15:23.660Z,10.40
2023-04-12T13:17:54.425Z,10.50
2023-04-12T13:20:22.263Z,10.50
2023-04-12T13:22:52.253Z,10.50
2023-04-12T13:25:22.565Z,10.60
2023-04-12T13:27:50.596Z,10.60
2023-04-12T13:30:18.870Z,10.60
2023-04-12T13:32:46.795Z,10.70
2023-04-12T13:35:14.039Z,10.70
2023-04-12T13:37:41.016Z,10.60
2023-04-12T13:40:08.696Z,10.60
2023-04-12T13:42:35.548Z,10.60
2023-04-12T13:45:02.513Z,10.60
2023-04-12T13:47:29.444Z,10.60
2023-04-12T13:49:56.385Z,10.60
2023-04-12T13:52:23.220Z,10.50
2023-04-12T13:54:51.457Z,10.60
2023-04-12T13:57:18.379Z,10.70
2023-04-12T13:59:45.370Z,10.70
2023-04-12T14:02:12.319Z,10.70
2023-04-12T14:04:51.762Z,10.70
2023-04-12T14:07:19.204Z,10.70
2023-04-12T14:09:46.214Z,10.70
2023-04-12T14:12:13.003Z,10.60
2023-04-12T14:14:39.919Z,10.60
2023-04-12T14:17:07.153Z,10.70
2023-04-12T14:19:34.027Z,10.70
2023-04-12T14:22:02.548Z,10.70
2023-04-12T14:24:29.613Z,10.60
2023-04-12T14:26:57.371Z,10.70
2023-04-12T14:29:24.256Z,10.70
2023-04-12T14:31:51.276Z,10.70
2023-04-12T14:34:18.115Z,10.70
2023-04-12T14:36:44.997Z,10.70
2023-04-12T14:39:13.885Z,10.70
2023-04-12T14:41:41.824Z,10.80
2023-04-12T14:44:08.715Z,10.80
2023-04-12T14:46:35.709Z,10.80
2023-04-12T14:49:02.664Z,10.90
2023-04-12T14:51:30.250Z,10.90
2023-04-12T14:53:58.046Z,11.00
2023-04-12T14:56:28.610Z,11.00
2023-04-12T14:58:57.440Z,10.90
2023-04-12T15:01:25.640Z,11.10
2023-04-12T15:03:53.610Z,11.10
2023-04-12T15:06:23.556Z,11.10
2023-04-12T15:08:54.510Z,11.10
2023-04-12T15:11:26.770Z,11.10
2023-04-12T15:13:55.118Z,11.10
2023-04-12T15:16:22.572Z,11.20
2023-04-12T15:18:51.464Z,11.10
2023-04-12T15:21:18.690Z,11.20
2023-04-12T15:23:46.166Z,11.30
2023-04-12T15:26:14.421Z,11.20
2023-04-12T15:28:42.225Z,11.20
2023-04-12T15:31:09.751Z,11.20
2023-04-12T15:33:37.330Z,11.30
2023-04-12T15:36:05.213Z,11.20
2023-04-12T15:38:32.263Z,11.30
2023-04-12T15:41:00.986Z,11.30
2023-04-12T15:43:29.054Z,11.30
2023-04-12T15:45:56.324Z,11.40
2023-04-12T15:48:24.831Z,11.40
2023-04-12T15:50:52.876Z,11.30
2023-04-12T15:53:23.756Z,11.30
2023-04-12T15:55:57.731Z,11.30
2023-04-12T15:58:27.024Z,11.40
2023-04-12T16:00:54.147Z,11.40
2023-04-12T16:03:26.567Z,11.40
2023-04-12T16:05:54.215Z,11.40
2023-04-12T16:08:22.416Z,11.30
2023-04-12T16:10:50.800Z,11.40
2023-04-12T16:13:18.328Z,11.50
2023-04-12T16:15:45.820Z,11.50
2023-04-12T16:18:12.986Z,11.50
2023-04-12T16:20:42.839Z,11.50
2023-04-12T16:23:09.835Z,11.50
2023-04-12T16:25:36.720Z,11.50
2023-04-12T16:28:03.831Z,11.50
2023-04-12T16:30:35.155Z,11.40
2023-04-12T16:33:02.145Z,11.40
2023-04-12T16:35:29.094Z,11.30
2023-04-12T16:37:56.328Z,11.20
2023-04-12T16:40:24.707Z,11.30
2023-04-12T16:42:51.776Z,11.20
2023-04-12T16:45:18.767Z,11.20
2023-04-12T16:47:48.122Z,11.20
2023-04-12T16:50:15.608Z,11.10
2023-04-12T16:52:42.769Z,11.20
2023-04-12T16:55:14.281Z,11.10
2023-04-12T16:57:42.856Z,11.20
2023-04-12T17:00:19.640Z,11.10
2023-04-12T17:02:48.730Z,11.10
2023-04-12T17:05:18.037Z,11.10
2023-04-12T17:07:47.835Z,11.00
2023-04-12T17:10:17.196Z,11.00
2023-04-12T17:12:52.313Z,10.90
2023-04-12T17:15:25.392Z,10.90
2023-04-12T17:17:59.561Z,10.90
2023-04-12T17:20:27.178Z,11.00
2023-04-12T17:22:55.294Z,11.00
2023-04-12T17:25:23.500Z,11.00
2023-04-12T17:27:52.419Z,10.90
2023-04-12T17:30:19.431Z,10.90
2023-04-12T17:32:47.699Z,11.00
2023-04-12T17:35:14.793Z,10.90
2023-04-12T17:37:41.835Z,10.90
2023-04-12T17:40:12.523Z,10.90
2023-04-12T17:42:40.631Z,10.90
2023-04-12T17:45:09.013Z,10.90
2023-04-12T17:47:36.154Z,10.90
2023-04-12T17:50:03.510Z,10.90
2023-04-12T17:52:30.534Z,10.90
2023-04-12T17:55:03.974Z,10.90
2023-04-12T17:57:31.384Z,10.90
2023-04-12T17:59:58.664Z,10.90
2023-04-12T18:02:26.140Z,10.90
2023-04-12T18:04:53.294Z,10.80
2023-04-12T18:07:20.761Z,10.80
2023-04-12T18:09:48.272Z,10.80
2023-04-12T18:12:15.181Z,10.70
2023-04-12T18:14:42.067Z,10.80
2023-04-12T18:17:08.918Z,10.70
2023-04-12T18:19:37.096Z,10.70
2023-04-12T18:22:04.154Z,10.70
2023-04-12T18:24:31.258Z,10.60
2023-04-12T18:26:59.414Z,10.50
2023-04-12T18:29:26.410Z,10.50
2023-04-12T18:31:53.419Z,10.50
2023-04-12T18:34:20.352Z,10.50
2023-04-12T18:36:47.730Z,10.50
2023-04-12T18:39:14.794Z,10.40
2023-04-12T18:41:41.810Z,10.30
2023-04-12T18:44:09.570Z,10.30
2023-04-12T18:46:36.791Z,10.30
2023-04-12T18:49:06.784Z,10.30
2023-04-12T18:51:33.782Z,10.10
2023-04-12T18:54:01.081Z,10.00
2023-04-12T18:56:28.421Z,10.00
2023-04-12T18:58:56.753Z,9.90
2023-04-12T19:01:25.179Z,9.90
2023-04-12T19:03:52.606Z,9.80
2023-04-12T19:06:19.754Z,9.80
2023-04-12T19:08:46.837Z,9.80
2023-04-12T19:11:13.964Z,9.80
2023-04-12T19:13:40.886Z,9.80
2023-04-12T19:16:08.094Z,9.80
2023-04-12T19:18:35.454Z,9.80
2023-04-12T19:21:03.196Z,9.70
2023-04-12T19:23:31.369Z,9.70
2023-04-12T19:26:00.277Z,9.70
2023-04-12T19:28:28.296Z,9.70
2023-04-12T19:30:57.578Z,9.60
2023-04-12T19:33:25.146Z,9.70
2023-04-12T19:35:52.330Z,9.60
2023-04-12T19:38:21.313Z,9.60
2023-04-12T19:40:48.178Z,9.60
2023-04-12T19:43:16.523Z,9.60
2023-04-12T19:45:44.204Z,9.60
2023-04-12T19:48:12.574Z,9.60
2023-04-12T19:50:39.831Z,9.60
2023-04-12T19:53:06.647Z,9.60
2023-04-12T19:55:33.452Z,9.60
2023-04-12T19:58:00.747Z,9.60
2023-04-12T20:00:27.753Z,9.60
2023-04-12T20:02:55.288Z,9.60
2023-04-12T20:05:25.740Z,9.60
2023-04-12T20:07:55.256Z,9.60
2023-04-12T20:10:22.135Z,9.50
2023-04-12T20:12:49.002Z,9.50
2023-04-12T20:15:16.194Z,9.60
2023-04-12T20:17:44.041Z,9.60
2023-04-12T20:20:12.762Z,9.60
2023-04-12T20:22:41.849Z,9.60
2023-04-12T20:25:13.134Z,9.60
2023-04-12T20:27:40.044Z,9.60
2023-04-12T20:30:08.982Z,9.60
2023-04-12T20:32:36.100Z,9.60
2023-04-12T20:35:06.785Z,9.60
2023-04-12T20:37:33.911Z,9.60
2023-04-12T20:40:00.934Z,9.60
2023-04-12T20:42:27.815Z,9.60
2023-04-12T20:44:55.029Z,9.60
2023-04-12T20:47:22.605Z,9.60
2023-04-12T20:49:50.535Z,9.60
2023-04-12T20:52:18.882Z,9.60
2023-04-12T20:54:45.822Z,9.70
2023-04-12T20:57:13.175Z,9.70
2023-04-12T20:59:40.159Z,9.60
2023-04-12T21:02:09.513Z,9.70
2023-04-12T21:04:36.726Z,9.70
2023-04-12T21:07:05.077Z,9.60
2023-04-12T21:09:32.435Z,9.70
2023-04-12T21:12:02.701Z,9.70
2023-04-12T21:14:29.604Z,9.70
2023-04-12T21:16:56.625Z,9.70
2023-04-12T21:19:23.605Z,9.70
2023-04-12T21:21:51.205Z,9.70
2023-04-12T21:24:18.456Z,9.70
2023-04-12T21:26:53.676Z,9.80
2023-04-12T21:29:20.413Z,9.70
2023-04-12T21:31:47.301Z,9.80
2023-04-12T21:34:14.424Z,9.80
2023-04-12T21:36:41.161Z,9.80
2023-04-12T21:39:08.061Z,9.70
2023-04-12T21:41:37.218Z,9.80
2023-04-12T21:44:04.124Z,9.80
2023-04-12T21:46:31.078Z,9.90
2023-04-12T21:48:58.212Z,9.90
2023-04-12T21:51:26.463Z,9.80
2023-04-12T21:53:53.269Z,9.90
2023-04-12T21:56:20.011Z,9.90
2023-04-12T21:58:46.760Z,10.00
2023-04-12T22:01:14.274Z,10.00
2023-04-12T22:03:43.705Z,10.00
2023-04-12T22:06:11.889Z,10.00
2023-04-12T22:08:42.804Z,10.00
2023-04-12T22:11:11.052Z,10.00
2023-04-12T22:13:46.841Z,10.00
2023-04-12T22:16:14.207Z,10.00
2023-04-12T22:18:41.259Z,10.00
2023-04-12T22:21:08.202Z,10.00
2023-04-12T22:23:38.890Z,10.00
2023-04-12T22:26:10.241Z,10.10
2023-04-12T22:28:38.137Z,10.10
2023-04-12T22:31:06.239Z,10.10
2023-04-12T22:33:33.374Z,10.20
2023-04-12T22:36:02.222Z,10.40
2023-04-12T22:38:29.090Z,10.30
2023-04-12T22:41:02.231Z,10.30
2023-04-12T22:43:34.132Z,10.30
2023-04-12T22:46:02.328Z,10.10
2023-04-12T22:48:32.325Z,10.10
2023-04-12T22:51:02.277Z,10.20
2023-04-12T22:53:29.330Z,10.10
2023-04-12T22:55:56.928Z,10.20
2023-04-12T22:58:24.185Z,10.20
2023-04-12T23:00:51.235Z,10.20
2023-04-12T23:03:19.220Z,10.20
2023-04-12T23:05:46.684Z,10.30
2023-04-12T23:08:14.553Z,10.20
2023-04-12T23:10:44.731Z,10.20
2023-04-12T23:13:11.932Z,10.40
2023-04-12T23:15:45.600Z,10.40
2023-04-12T23:18:12.525Z,10.30
2023-04-12T23:20:40.415Z,10.30
2023-04-12T23:23:07.239Z,10.30
2023-04-12T23:25:39.297Z,10.30
2023-04-12T23:28:14.855Z,10.30
2023-04-12T23:30:44.503Z,10.20
2023-04-12T23:33:12.407Z,10.20
2023-04-12T23:35:39.760Z,10.20
2023-04-12T23:38:07.330Z,10.20
2023-04-12T23:40:34.785Z,10.30
2023-04-12T23:43:02.172Z,10.40
2023-04-12T23:45:29.036Z,10.30
2023-04-12T23:47:56.036Z,10.30
2023-04-12T23:50:23.512Z,10.40
2023-04-12T23:52:50.338Z,10.30
2023-04-12T23:55:17.287Z,10.30
2023-04-12T23:57:44.173Z,10.30
